Time;durP1;ratioP1;P1;durP2;ratioP2;P2;SDS_P1;SDS_P2;PMS_P1;PMS_P2;Temp;Humidity;BMP_temperature;BMP_pressure;BME280_temperature;BME280_humidity;BME280_pressure;Samples;Min_cycle;Max_cycle;Signal;HPM_P1;HPM_P2
2022/02/24 00:01:10;;;;;;;1.23;1.10;;;;;;;26.20;27.69;97005.91;5009736;28;20906;-31
2022/02/24 00:03:36;;;;;;;0.82;0.82;;;;;;;26.20;27.86;97007.69;5006959;28;20487;-29
2022/02/24 00:06:01;;;;;;;1.08;0.90;;;;;;;26.21;27.90;97007.59;5009094;28;20991;-30
2022/02/24 00:08:27;;;;;;;1.45;1.00;;;;;;;26.20;27.78;97007.69;5008298;28;20037;-33
2022/02/24 00:10:52;;;;;;;1.80;0.82;;;;;;;26.20;27.84;97005.91;5008231;28;20069;-29
2022/02/24 00:13:18;;;;;;;1.95;0.73;;;;;;;26.20;27.73;96995.41;5006414;28;20104;-29
2022/02/24 00:15:43;;;;;;;1.05;0.90;;;;;;;26.20;27.82;96995.41;5008513;28;20025;-31
2022/02/24 00:18:09;;;;;;;1.40;0.82;;;;;;;26.20;27.68;96998.03;5010855;28;20132;-31
2022/02/24 00:20:34;;;;;;;1.60;0.88;;;;;;;26.20;27.78;96990.16;4992663;28;20040;-30
2022/02/24 00:23:00;;;;;;;1.63;0.90;;;;;;;26.20;27.70;96989.31;5009432;28;20541;-27
2022/02/24 00:25:25;;;;;;;1.00;0.90;;;;;;;26.20;27.73;96984.06;5014520;28;20026;-30
2022/02/24 00:27:50;;;;;;;1.35;1.00;;;;;;;26.20;27.68;96981.44;5014625;28;20479;-30
2022/02/24 00:30:19;;;;;;;1.30;0.90;;;;;;;26.20;27.79;96978.81;5014828;28;20037;-32
2022/02/24 00:32:44;;;;;;;1.20;0.90;;;;;;;26.19;27.82;96974.47;5012989;28;20029;-31
2022/02/24 00:35:11;;;;;;;1.73;1.00;;;;;;;26.19;27.86;96971.84;5014478;28;20079;-30
2022/02/24 00:37:37;;;;;;;1.08;0.88;;;;;;;26.19;27.78;96974.47;5012931;28;20051;-33
2022/02/24 00:40:02;;;;;;;2.03;1.10;;;;;;;26.19;27.68;96971.84;5008730;28;20599;-31
2022/02/24 00:42:28;;;;;;;1.48;0.88;;;;;;;26.19;27.68;96969.19;5006324;28;20052;-29
2022/02/24 00:44:53;;;;;;;1.10;0.85;;;;;;;26.18;27.73;96965.75;5006228;28;20393;-29
2022/02/24 00:47:19;;;;;;;1.50;0.93;;;;;;;26.19;27.76;96971.84;5006801;28;20496;-29
2022/02/24 00:49:44;;;;;;;1.00;0.70;;;;;;;26.18;27.72;96967.50;5007886;28;20733;-29
2022/02/24 00:52:09;;;;;;;1.27;0.98;;;;;;;26.19;27.70;96971.84;5008504;28;20021;-32
2022/02/24 00:54:35;;;;;;;1.48;1.00;;;;;;;26.17;27.88;96968.44;5005028;28;20477;-30
2022/02/24 00:57:00;;;;;;;1.90;0.90;;;;;;;26.17;27.82;96968.44;5010451;28;20045;-32
2022/02/24 00:59:26;;;;;;;1.20;0.93;;;;;;;26.17;27.73;96968.44;5006129;28;20037;-30
2022/02/24 01:01:51;;;;;;;1.33;0.80;;;;;;;26.17;27.83;96968.44;5008255;28;20037;-29
2022/02/24 01:04:16;;;;;;;1.10;0.90;;;;;;;26.16;27.75;96962.34;5007427;28;20037;-29
2022/02/24 01:06:42;;;;;;;2.05;0.90;;;;;;;26.16;27.76;96964.97;5007748;28;20040;-30
2022/02/24 01:09:08;;;;;;;1.85;1.23;;;;;;;26.16;27.73;96956.25;5009322;28;20507;-30
2022/02/24 01:11:33;;;;;;;1.10;0.75;;;;;;;26.16;27.81;96949.19;5009168;28;20396;-30
2022/02/24 01:13:59;;;;;;;1.27;0.80;;;;;;;26.16;27.86;96953.63;5007509;28;20037;-31
2022/02/24 01:16:24;;;;;;;11.45;1.90;;;;;;;26.15;27.67;96959.78;5007770;28;20048;-29
2022/02/24 01:18:49;;;;;;;3.15;1.48;;;;;;;26.15;27.60;96954.53;5008451;28;20036;-30
2022/02/24 01:21:15;;;;;;;1.90;0.95;;;;;;;26.14;27.83;96952.84;5007113;28;20014;-28
2022/02/24 01:23:40;;;;;;;1.50;1.00;;;;;;;26.13;27.80;96948.53;5013156;28;20025;-30
2022/02/24 01:26:06;;;;;;;1.65;1.15;;;;;;;26.13;27.73;96940.66;5011799;28;20569;-29
2022/02/24 01:28:31;;;;;;;1.08;0.93;;;;;;;26.13;27.71;96952.00;5010491;28;20435;-29
2022/02/24 01:30:57;;;;;;;3.10;0.93;;;;;;;26.12;27.88;96945.03;5015956;28;20033;-29
2022/02/24 01:33:22;;;;;;;3.35;1.23;;;;;;;26.12;27.77;96945.03;5014783;28;20064;-30
2022/02/24 01:35:47;;;;;;;2.65;1.10;;;;;;;26.12;27.85;96944.22;5014895;28;20021;-30
2022/02/24 01:38:13;;;;;;;1.05;0.80;;;;;;;26.12;27.79;96938.94;5013489;28;20491;-30
2022/02/24 01:40:38;;;;;;;1.33;1.05;;;;;;;26.12;27.74;96931.91;5014009;28;20107;-30
2022/02/24 01:43:04;;;;;;;1.05;0.85;;;;;;;26.10;27.88;96926.72;5015098;28;20396;-28
2022/02/24 01:45:29;;;;;;;1.55;1.00;;;;;;;26.10;27.75;96926.72;5016261;28;20026;-29
2022/02/24 01:47:58;;;;;;;1.42;0.93;;;;;;;26.11;27.77;96927.59;4997775;28;20355;-30
2022/02/24 01:50:23;;;;;;;3.13;0.80;;;;;;;26.10;27.68;96915.38;5014210;28;20579;-29
2022/02/24 01:52:50;;;;;;;1.00;0.90;;;;;;;26.10;27.75;96915.38;5013328;28;20040;-28
2022/02/24 01:55:16;;;;;;;1.58;0.82;;;;;;;26.10;27.85;96903.09;4999801;28;20040;-30
2022/02/24 01:57:41;;;;;;;1.00;0.75;;;;;;;26.12;27.89;96902.19;5016328;28;20743;-31
2022/02/24 02:00:08;;;;;;;1.42;0.82;;;;;;;26.10;27.79;96892.59;5015761;28;20025;-29
2022/02/24 02:02:33;;;;;;;1.15;0.73;;;;;;;26.10;27.74;96889.97;5012834;28;20037;-31
2022/02/24 02:04:59;;;;;;;1.27;0.95;;;;;;;26.10;27.84;96895.22;5007923;28;20060;-28
2022/02/24 02:07:24;;;;;;;1.30;0.73;;;;;;;26.09;27.86;96880.38;5008062;28;20033;-30
2022/02/24 02:09:50;;;;;;;1.65;1.00;;;;;;;26.09;27.85;96877.75;5010972;28;20029;-30
2022/02/24 02:12:18;;;;;;;0.93;0.75;;;;;;;26.09;27.95;96869.88;5012257;28;20049;-29
2022/02/24 02:14:44;;;;;;;4.30;0.90;;;;;;;26.09;27.91;96867.25;5009140;28;20073;-31
2022/02/24 02:17:10;;;;;;;0.70;0.70;;;;;;;26.09;27.81;96866.44;5010546;28;20033;-30
2022/02/24 02:19:36;;;;;;;1.00;0.82;;;;;;;26.05;27.97;96857.84;5006901;28;20036;-30
2022/02/24 02:22:02;;;;;;;0.88;0.80;;;;;;;26.08;27.70;96865.56;5012385;28;20022;-35
2022/02/24 02:24:27;;;;;;;1.02;0.90;;;;;;;26.08;27.76;96860.31;5015680;28;20164;-30
2022/02/24 02:26:52;;;;;;;1.65;0.82;;;;;;;26.09;27.91;96862.00;5015881;28;20078;-29
2022/02/24 02:29:18;;;;;;;0.70;0.70;;;;;;;26.08;27.90;96857.69;5017171;28;20021;-30
2022/02/24 02:31:43;;;;;;;1.33;0.60;;;;;;;26.08;27.88;96859.47;4998688;28;20030;-28
2022/02/24 02:34:11;;;;;;;1.92;0.90;;;;;;;26.08;27.78;96855.06;5017022;28;20515;-29
2022/02/24 02:36:37;;;;;;;2.08;0.85;;;;;;;26.08;27.80;96857.69;5015256;28;20033;-30
2022/02/24 02:39:04;;;;;;;1.10;0.80;;;;;;;26.08;27.90;96852.44;5009710;28;20036;-28
2022/02/24 02:41:33;;;;;;;1.45;0.73;;;;;;;26.07;27.92;96848.13;5005864;28;20018;-28
2022/02/24 02:43:58;;;;;;;1.13;0.70;;;;;;;26.07;27.94;96853.38;5008832;28;20100;-30
2022/02/24 02:46:23;;;;;;;1.25;0.90;;;;;;;26.07;27.89;96837.63;5008210;28;20562;-28
2022/02/24 02:48:49;;;;;;;1.30;0.63;;;;;;;26.07;27.82;96842.00;5008032;28;20021;-29
2022/02/24 02:51:14;;;;;;;0.95;0.80;;;;;;;26.05;27.84;96844.72;5010494;28;20021;-30
2022/02/24 02:53:40;;;;;;;0.70;0.60;;;;;;;26.06;27.93;96841.19;5008625;28;20036;-27
2022/02/24 02:56:05;;;;;;;0.82;0.80;;;;;;;26.06;27.92;96835.06;5006442;28;20038;-29
2022/02/24 02:58:31;;;;;;;1.48;0.65;;;;;;;26.06;27.86;96830.69;5005938;28;20055;-29
2022/02/24 03:00:56;;;;;;;0.70;0.70;;;;;;;26.06;27.65;96835.06;5006956;28;20033;-32
2022/02/24 03:03:24;;;;;;;1.10;0.60;;;;;;;26.05;27.93;96826.34;5008371;28;20498;-29
2022/02/24 03:05:53;;;;;;;0.70;0.55;;;;;;;26.05;27.92;96828.97;4990453;28;20435;-26
2022/02/24 03:08:18;;;;;;;1.02;0.75;;;;;;;26.05;27.84;96823.72;5012189;28;20029;-29
2022/02/24 03:10:44;;;;;;;0.75;0.60;;;;;;;26.05;27.91;96817.63;5007606;28;20029;-30
2022/02/24 03:13:10;;;;;;;0.65;0.55;;;;;;;26.03;27.82;96812.44;4991306;28;20526;-31
2022/02/24 03:15:35;;;;;;;0.85;0.68;;;;;;;26.05;27.81;96807.94;5008846;28;20034;-27
2022/02/24 03:18:00;;;;;;;0.63;0.60;;;;;;;26.04;27.94;96803.63;5007589;28;20105;-29
2022/02/24 03:20:31;;;;;;;1.42;0.88;;;;;;;26.04;27.95;96806.25;5007034;28;20041;-32
2022/02/24 03:22:57;;;;;;;0.65;0.60;;;;;;;26.04;27.83;96795.75;5010048;28;20055;-28
2022/02/24 03:25:22;;;;;;;0.80;0.70;;;;;;;26.04;27.96;96794.91;5008403;28;20037;-28
2022/02/24 03:27:48;;;;;;;0.65;0.50;;;;;;;26.04;27.94;96790.50;5007469;28;20033;-30
2022/02/24 03:30:13;;;;;;;0.52;0.52;;;;;;;26.03;27.91;96783.56;5008660;28;20025;-30
2022/02/24 03:32:39;;;;;;;1.58;0.50;;;;;;;26.03;27.88;96778.31;5016388;28;20036;-29
2022/02/24 03:35:05;;;;;;;1.48;0.68;;;;;;;26.03;27.85;96788.81;4993439;28;20028;-29
2022/02/24 03:37:30;;;;;;;0.90;0.75;;;;;;;26.03;27.92;96788.81;5006696;28;20033;-29
2022/02/24 03:39:55;;;;;;;0.60;0.60;;;;;;;26.03;28.02;96773.06;5004940;28;20021;-30
2022/02/24 03:42:21;;;;;;;0.80;0.70;;;;;;;26.03;27.84;96773.06;5007490;28;20096;-30
2022/02/24 03:44:46;;;;;;;0.73;0.57;;;;;;;26.03;27.95;96775.69;5008300;28;20025;-28
2022/02/24 03:47:12;;;;;;;0.75;0.65;;;;;;;26.02;27.89;96774.00;5005618;28;20134;-28
2022/02/24 03:49:37;;;;;;;1.23;0.60;;;;;;;26.03;27.93;96773.06;5007189;28;20703;-29
2022/02/24 03:52:03;;;;;;;0.88;0.65;;;;;;;26.03;27.82;96773.06;5008209;28;20033;-32
2022/02/24 03:54:28;;;;;;;1.05;0.82;;;;;;;26.01;28.03;96769.66;5004788;28;20029;-29
2022/02/24 03:56:53;;;;;;;1.00;0.80;;;;;;;26.01;27.99;96769.66;5008191;28;20487;-33
2022/02/24 03:59:19;;;;;;;1.15;0.40;;;;;;;26.01;27.83;96767.03;5009821;28;20028;-31
2022/02/24 04:01:44;;;;;;;0.77;0.77;;;;;;;26.02;27.93;96765.25;5007559;28;20029;-29
2022/02/24 04:04:12;;;;;;;0.77;0.50;;;;;;;26.01;28.04;96763.56;5007479;28;20472;-29
2022/02/24 04:06:38;;;;;;;0.57;0.50;;;;;;;26.01;27.92;96763.56;5009558;28;20033;-29
2022/02/24 04:09:03;;;;;;;0.68;0.57;;;;;;;26.00;27.91;96764.50;5006054;28;20428;-28
2022/02/24 04:11:28;;;;;;;1.10;0.50;;;;;;;26.01;28.09;96763.56;5006668;28;20511;-28
2022/02/24 04:13:54;;;;;;;0.95;0.60;;;;;;;26.01;27.90;96763.56;5004641;28;20037;-28
2022/02/24 04:16:19;;;;;;;0.50;0.50;;;;;;;25.98;27.96;96756.72;5008352;28;20534;-27
2022/02/24 04:18:45;;;;;;;0.80;0.50;;;;;;;26.00;27.91;96752.22;5008393;28;20041;-27
2022/02/24 04:21:10;;;;;;;0.70;0.50;;;;;;;26.01;27.91;96753.06;5005901;28;20903;-30
2022/02/24 04:23:35;;;;;;;0.77;0.57;;;;;;;26.01;27.85;96742.56;5006407;28;20732;-29
2022/02/24 04:26:01;;;;;;;0.50;0.50;;;;;;;26.00;28.06;96741.72;5006285;28;20025;-30
2022/02/24 04:28:26;;;;;;;0.82;0.55;;;;;;;26.00;27.96;96739.09;5007856;28;20028;-28
2022/02/24 04:30:52;;;;;;;0.43;0.40;;;;;;;25.98;27.88;96733.09;5004531;28;20056;-29
2022/02/24 04:33:18;;;;;;;1.02;0.60;;;;;;;26.00;27.91;96741.72;5007295;28;20029;-29
2022/02/24 04:35:43;;;;;;;1.02;0.60;;;;;;;26.00;28.00;96735.63;5005113;28;20075;-28
2022/02/24 04:38:08;;;;;;;0.90;0.68;;;;;;;25.98;28.04;96733.09;5007874;28;20567;-30
2022/02/24 04:40:34;;;;;;;0.68;0.50;;;;;;;25.98;27.86;96725.22;5004855;28;20033;-28
2022/02/24 04:42:59;;;;;;;0.38;0.38;;;;;;;25.99;27.97;96719.03;5005336;28;20030;-29
2022/02/24 04:45:25;;;;;;;0.98;0.63;;;;;;;25.99;27.87;96708.50;5004356;28;20026;-32
2022/02/24 04:47:50;;;;;;;0.88;0.50;;;;;;;25.99;28.03;96708.50;5007945;28;20176;-30
2022/02/24 04:50:15;;;;;;;0.60;0.50;;;;;;;25.98;27.93;96696.31;5004566;28;20057;-28
2022/02/24 04:52:41;;;;;;;0.55;0.50;;;;;;;25.98;28.04;96692.84;5005359;28;20736;-30
2022/02/24 04:55:07;;;;;;;0.45;0.45;;;;;;;25.97;28.04;96694.59;5006887;28;20037;-33
2022/02/24 04:57:32;;;;;;;0.50;0.50;;;;;;;25.96;28.00;96687.66;5003628;28;20029;-28
2022/02/24 04:59:58;;;;;;;0.40;0.40;;;;;;;25.96;27.86;96693.78;5005385;28;20033;-32
2022/02/24 05:02:23;;;;;;;0.47;0.43;;;;;;;25.95;28.04;96686.84;5006317;28;20159;-28
2022/02/24 05:04:49;;;;;;;0.70;0.45;;;;;;;25.96;27.93;96687.66;5007539;28;20044;-29
2022/02/24 05:07:14;;;;;;;0.50;0.50;;;;;;;25.96;27.94;96682.41;4989704;28;23199;-30
2022/02/24 05:09:40;;;;;;;0.52;0.50;;;;;;;25.94;27.90;96676.44;5010015;28;20040;-32
2022/02/24 05:12:06;;;;;;;1.73;0.63;;;;;;;25.96;27.96;96677.16;5014924;28;20026;-28
2022/02/24 05:14:31;;;;;;;1.73;0.95;;;;;;;25.95;28.12;96676.34;5013898;28;20295;-29
2022/02/24 05:16:57;;;;;;;1.60;0.80;;;;;;;25.95;27.99;96680.72;5013939;28;20025;-29
2022/02/24 05:19:22;;;;;;;1.77;0.68;;;;;;;25.93;27.99;96665.06;5012644;28;20100;-30
2022/02/24 05:21:48;;;;;;;1.83;0.57;;;;;;;25.93;28.06;96672.94;5013960;28;20025;-31
2022/02/24 05:24:13;;;;;;;0.93;0.47;;;;;;;25.94;27.87;96673.81;5013285;28;20041;-30
2022/02/24 05:26:39;;;;;;;0.90;0.63;;;;;;;25.92;28.06;96666.00;5012191;28;20022;-31
2022/02/24 05:29:04;;;;;;;0.88;0.50;;;;;;;25.92;28.00;96659.91;5013656;28;20503;-28
2022/02/24 05:31:29;;;;;;;0.60;0.60;;;;;;;25.92;28.00;96652.00;5013707;28;20041;-29
2022/02/24 05:33:55;;;;;;;0.70;0.70;;;;;;;25.92;27.94;96657.28;5011349;28;20103;-29
2022/02/24 05:36:20;;;;;;;0.40;0.32;;;;;;;25.91;27.97;96652.97;5014358;28;20028;-29
2022/02/24 05:38:46;;;;;;;1.00;0.60;;;;;;;25.91;28.01;96652.97;5011138;28;20025;-29
2022/02/24 05:41:11;;;;;;;1.25;0.60;;;;;;;25.90;28.44;96652.09;5004494;28;20532;-32
2022/02/24 05:43:36;;;;;;;1.65;0.82;;;;;;;25.91;27.99;96647.72;5005513;28;20234;-31
2022/02/24 05:46:02;;;;;;;0.82;0.60;;;;;;;25.91;27.88;96643.31;5005978;28;20484;-29
2022/02/24 05:48:27;;;;;;;0.50;0.50;;;;;;;25.91;27.96;96643.31;5004632;28;20044;-29
2022/02/24 05:50:53;;;;;;;0.40;0.40;;;;;;;25.91;27.95;96645.09;5005569;28;20026;-32
2022/02/24 05:53:18;;;;;;;0.95;0.50;;;;;;;25.91;27.91;96637.19;5006532;28;20400;-29
2022/02/24 05:55:43;;;;;;;0.47;0.32;;;;;;;25.91;28.06;96643.31;5006327;28;20029;-29
2022/02/24 05:58:09;;;;;;;0.90;0.60;;;;;;;25.91;28.02;96643.31;5011360;28;20480;-30
2022/02/24 06:00:34;;;;;;;0.80;0.70;;;;;;;25.91;27.93;96639.81;5011015;28;20041;-30
2022/02/24 06:03:00;;;;;;;0.85;0.50;;;;;;;25.92;28.04;96644.13;5007300;28;20037;-28
2022/02/24 06:05:26;;;;;;;1.00;0.52;;;;;;;25.90;28.14;96641.59;5010137;28;20029;-29
2022/02/24 06:07:51;;;;;;;0.88;0.50;;;;;;;25.90;28.03;96646.84;5010246;28;20033;-29
2022/02/24 06:10:17;;;;;;;2.10;0.40;;;;;;;25.90;28.11;96652.09;5009088;28;20039;-28
2022/02/24 06:12:42;;;;;;;0.50;0.50;;;;;;;25.90;28.01;96646.03;5008902;28;20165;-28
2022/02/24 06:15:08;;;;;;;0.50;0.50;;;;;;;25.90;28.00;96651.28;5009132;28;20040;-32
2022/02/24 06:17:35;;;;;;;0.95;0.55;;;;;;;25.90;28.09;96656.53;5009158;28;20038;-30
2022/02/24 06:20:00;;;;;;;1.67;0.60;;;;;;;25.89;28.09;96660.91;5009994;28;20025;-30
2022/02/24 06:22:25;;;;;;;0.43;0.43;;;;;;;25.90;28.05;96649.47;5009119;28;20039;-31
2022/02/24 06:24:51;;;;;;;0.30;0.30;;;;;;;25.90;27.97;96651.28;5008663;28;20017;-30
2022/02/24 06:27:19;;;;;;;1.55;0.50;;;;;;;25.88;28.14;96640.00;5009900;28;20162;-29
2022/02/24 06:29:45;;;;;;;1.85;0.60;;;;;;;25.90;28.01;96643.41;5007765;28;20033;-29
2022/02/24 06:32:13;;;;;;;1.23;0.50;;;;;;;25.89;28.00;96645.16;5007475;28;20044;-30
2022/02/24 06:34:41;;;;;;;0.40;0.40;;;;;;;25.90;28.10;96646.03;5008497;28;21261;-28
2022/02/24 06:37:07;;;;;;;0.70;0.70;;;;;;;25.90;28.03;96643.41;5009391;28;20042;-28
2022/02/24 06:39:32;;;;;;;0.40;0.40;;;;;;;25.91;28.12;96642.47;5006981;28;20055;-31
2022/02/24 06:41:58;;;;;;;1.08;0.70;;;;;;;25.91;28.15;96637.19;5008625;28;20025;-30
2022/02/24 06:44:23;;;;;;;0.40;0.40;;;;;;;25.92;27.96;96638.88;5009619;28;20414;-29
2022/02/24 06:46:49;;;;;;;0.50;0.50;;;;;;;25.91;27.96;96637.19;5004001;28;20507;-28
2022/02/24 06:49:14;;;;;;;0.88;0.60;;;;;;;25.92;28.13;96636.25;5008673;28;20488;-30
2022/02/24 06:51:39;;;;;;;1.48;0.60;;;;;;;25.92;28.08;96633.63;4989421;28;20584;-31
2022/02/24 06:54:05;;;;;;;7.93;1.20;;;;;;;25.93;28.05;96632.72;4984771;28;20029;-30
2022/02/24 06:56:30;;;;;;;6.47;1.35;;;;;;;25.92;28.18;96625.75;5008855;28;20034;-28
2022/02/24 06:58:56;;;;;;;9.13;1.17;;;;;;;25.90;28.21;96630.28;5011883;28;20032;-29
2022/02/24 07:01:21;;;;;;;3.13;1.00;;;;;;;25.90;28.23;96630.28;5015036;28;20025;-30
2022/02/24 07:03:47;;;;;;;7.75;1.58;;;;;;;25.87;28.08;96625.19;5012093;28;20060;-30
2022/02/24 07:06:12;;;;;;;6.90;2.15;;;;;;;25.86;27.99;96624.34;5013856;28;20499;-29
2022/02/24 07:08:38;;;;;;;12.38;2.95;;;;;;;25.83;27.99;96617.47;5014904;28;20079;-30
2022/02/24 07:11:03;;;;;;;9.57;2.50;;;;;;;25.81;27.93;96611.47;4989991;28;20021;-27
2022/02/24 07:13:29;;;;;;;6.78;2.38;;;;;;;25.79;28.19;96610.72;5006597;28;20533;-29
2022/02/24 07:15:54;;;;;;;7.50;2.00;;;;;;;25.79;28.11;96613.34;4984855;28;20033;-28
2022/02/24 07:18:20;;;;;;;5.25;2.15;;;;;;;25.79;27.97;96613.34;5007527;28;20175;-30
2022/02/24 07:20:45;;;;;;;11.43;2.30;;;;;;;25.80;28.25;96614.19;5007766;28;20032;-29
2022/02/24 07:23:10;;;;;;;4.47;2.08;;;;;;;25.80;28.26;96604.53;5010120;28;20041;-29
2022/02/24 07:25:36;;;;;;;7.38;2.42;;;;;;;25.81;28.23;96606.22;4989194;28;20052;-29
2022/02/24 07:28:01;;;;;;;7.07;1.95;;;;;;;25.81;28.16;96600.97;5007100;28;20057;-29
2022/02/24 07:30:27;;;;;;;6.75;2.15;;;;;;;25.82;28.23;96602.66;5007698;28;20064;-31
2022/02/24 07:32:53;;;;;;;15.35;2.10;;;;;;;25.83;28.02;96604.34;5014504;28;20021;-29
2022/02/24 07:35:18;;;;;;;3.80;2.10;;;;;;;25.86;28.22;96602.50;5007908;28;20026;-28
2022/02/24 07:37:43;;;;;;;4.85;1.88;;;;;;;25.86;28.33;96603.34;5007966;28;20025;-29
2022/02/24 07:40:10;;;;;;;4.70;1.80;;;;;;;25.89;28.22;96597.09;5007622;28;20499;-29
2022/02/24 07:42:36;;;;;;;4.90;1.67;;;;;;;25.89;28.30;96592.66;5006532;28;20040;-29
2022/02/24 07:45:02;;;;;;;4.22;1.60;;;;;;;25.91;28.34;96600.44;5006690;28;21714;-32
2022/02/24 07:47:28;;;;;;;5.30;1.85;;;;;;;25.93;28.36;96598.59;5007298;28;20462;-31
2022/02/24 07:49:53;;;;;;;6.25;2.13;;;;;;;25.94;28.30;96589.78;5006100;28;20021;-30
2022/02/24 07:52:18;;;;;;;3.22;1.42;;;;;;;25.94;28.28;96584.53;5006738;28;20038;-30
2022/02/24 07:54:44;;;;;;;3.83;1.63;;;;;;;25.96;28.45;96587.91;5006226;28;20074;-28
2022/02/24 07:57:09;;;;;;;5.50;1.92;;;;;;;25.98;28.41;96582.56;5010027;28;20079;-31
2022/02/24 07:59:35;;;;;;;5.32;1.58;;;;;;;26.00;28.45;96578.09;5003856;28;20029;-28
2022/02/24 08:02:00;;;;;;;4.35;1.65;;;;;;;26.01;28.58;96571.91;5007237;28;20030;-30
2022/02/24 08:04:25;;;;;;;2.38;1.33;;;;;;;26.02;28.60;96577.06;5007075;28;20037;-28
2022/02/24 08:06:51;;;;;;;3.83;1.48;;;;;;;26.03;28.57;96572.66;5005852;28;21867;-30
2022/02/24 08:09:16;;;;;;;3.35;1.30;;;;;;;26.04;28.67;96564.69;5008341;28;20029;-28
2022/02/24 08:12:38;;;;;;;2.00;1.27;;;;;;;26.06;28.61;96561.97;5005556;28;20022;-30
2022/02/24 08:14:27;;;;;;;4.43;1.63;;;;;;;26.07;28.68;96550.53;5007536;28;20434;-29
2022/02/24 08:16:52;;;;;;;3.28;1.70;;;;;;;26.08;28.74;96560.94;5006110;28;20040;-29
2022/02/24 08:19:18;;;;;;;6.03;2.88;;;;;;;26.07;27.76;96554.00;5006635;28;20032;-32
2022/02/24 08:21:43;;;;;;;27.00;2.70;;;;;;;26.06;27.67;96549.69;4987966;28;20044;-27
2022/02/24 08:24:09;;;;;;;19.85;1.75;;;;;;;26.05;27.69;96547.97;5005030;28;20934;-30
2022/02/24 08:26:34;;;;;;;11.13;1.80;;;;;;;26.03;27.67;96549.88;5008691;28;20164;-29
2022/02/24 08:28:59;;;;;;;5.72;1.60;;;;;;;26.03;27.93;96541.13;5008799;28;20029;-28
2022/02/24 08:31:26;;;;;;;6.20;1.50;;;;;;;26.02;27.83;96535.06;5008939;28;20034;-30
2022/02/24 08:33:54;;;;;;;2.95;1.73;;;;;;;26.01;27.92;96538.59;5007193;28;20132;-29
2022/02/24 08:36:19;;;;;;;4.15;1.70;;;;;;;26.01;27.97;96535.97;5005746;28;20036;-28
2022/02/24 08:38:45;;;;;;;4.15;1.30;;;;;;;26.02;28.03;96540.31;5007820;28;20026;-31
2022/02/24 08:41:10;;;;;;;4.95;1.40;;;;;;;26.02;28.35;96544.69;5005383;28;20028;-28
2022/02/24 08:43:35;;;;;;;5.05;1.52;;;;;;;26.03;28.25;96541.13;5008417;28;20475;-30
2022/02/24 08:46:01;;;;;;;3.65;1.50;;;;;;;26.03;28.20;96546.38;5004690;28;20033;-29
2022/02/24 08:48:26;;;;;;;4.65;1.50;;;;;;;26.03;28.29;96541.13;5004738;28;20044;-32
2022/02/24 08:50:52;;;;;;;4.38;1.52;;;;;;;26.02;28.39;96540.31;5004062;28;20025;-29
2022/02/24 08:53:17;;;;;;;4.80;1.50;;;;;;;26.00;28.29;96531.66;5003819;28;21746;-29
2022/02/24 08:55:42;;;;;;;3.05;1.40;;;;;;;26.03;28.32;96531.50;5004598;28;20036;-29
2022/02/24 08:58:08;;;;;;;6.07;1.48;;;;;;;26.04;28.38;96527.91;5008055;28;20034;-29
2022/02/24 09:00:34;;;;;;;4.28;1.50;;;;;;;26.04;28.47;96525.28;5014009;28;20025;-28
2022/02/24 09:02:59;;;;;;;3.65;1.40;;;;;;;26.05;28.53;96528.78;5013600;28;20686;-28
2022/02/24 09:05:25;;;;;;;3.92;1.77;;;;;;;26.06;28.54;96520.81;5013179;28;20036;-30
2022/02/24 09:07:50;;;;;;;3.92;1.80;;;;;;;26.06;28.53;96518.19;5012846;28;20021;-31
2022/02/24 09:10:16;;;;;;;4.88;1.42;;;;;;;26.07;28.71;96516.38;5008676;28;20051;-28
2022/02/24 09:12:41;;;;;;;7.68;1.90;;;;;;;26.08;28.62;96512.81;5012975;28;20064;-27
2022/02/24 09:15:07;;;;;;;4.22;1.63;;;;;;;26.08;28.63;96505.81;5008681;28;22548;-28
2022/02/24 09:17:34;;;;;;;4.00;1.55;;;;;;;26.08;28.75;96507.56;5012636;28;20091;-30
2022/02/24 09:19:59;;;;;;;3.90;1.58;;;;;;;26.08;28.76;96497.91;5012342;28;20025;-29
2022/02/24 09:22:25;;;;;;;2.95;1.50;;;;;;;26.09;28.88;96499.59;5010198;28;20036;-30
2022/02/24 09:24:50;;;;;;;5.80;2.25;;;;;;;26.10;28.71;96495.22;5011779;28;20684;-31
2022/02/24 09:27:16;;;;;;;5.65;1.65;;;;;;;26.10;28.73;96485.53;5012433;28;20032;-30
2022/02/24 09:29:41;;;;;;;3.13;1.27;;;;;;;26.10;28.83;96490.78;5010361;28;20029;-32
2022/02/24 09:32:06;;;;;;;6.70;1.75;;;;;;;26.11;28.74;96486.38;5013696;28;20029;-28
2022/02/24 09:34:32;;;;;;;5.63;1.65;;;;;;;26.13;28.87;96486.31;5011943;28;20397;-33
2022/02/24 09:36:57;;;;;;;5.25;2.00;;;;;;;26.11;28.83;96465.38;5013530;28;20518;-29
2022/02/24 09:39:23;;;;;;;9.98;3.35;;;;;;;26.13;28.49;96487.16;5003698;28;22440;-30
2022/02/24 09:41:48;;;;;;;10.82;5.63;;;;;;;26.06;25.93;96484.06;5011110;28;20034;-35
2022/02/24 09:44:13;;;;;;;12.02;6.78;;;;;;;25.90;24.88;96478.00;5005151;28;20033;-31
2022/02/24 09:46:42;;;;;;;10.55;5.80;;;;;;;25.77;24.93;96477.84;5008130;28;20091;-30
2022/02/24 09:49:09;;;;;;;34.83;6.75;;;;;;;25.68;25.22;96479.25;5013729;28;20133;-30
2022/02/24 09:51:34;;;;;;;8.10;5.32;;;;;;;25.64;25.47;96467.25;5011708;28;20034;-34
2022/02/24 09:54:01;;;;;;;10.27;5.15;;;;;;;25.63;25.57;96457.69;5012465;28;20040;-30
2022/02/24 09:56:29;;;;;;;8.40;4.53;;;;;;;25.63;25.75;96460.31;5010728;28;20033;-37
2022/02/24 09:58:55;;;;;;;7.80;4.22;;;;;;;25.64;25.99;96462.00;4993116;28;20108;-32
2022/02/24 10:01:21;;;;;;;7.13;3.92;;;;;;;25.67;26.09;96460.03;5009807;28;20052;-31
2022/02/24 10:03:52;;;;;;;10.48;4.20;;;;;;;25.70;26.25;96459.00;5005177;28;20527;-30
2022/02/24 10:06:17;;;;;;;7.63;4.07;;;;;;;25.74;26.32;96463.13;5008086;28;20037;-31
2022/02/24 10:08:46;;;;;;;9.07;4.13;;;;;;;25.78;26.61;96464.66;5007022;28;20685;-32
2022/02/24 10:11:23;;;;;;;5.53;3.75;;;;;;;25.79;27.08;96453.25;5002454;28;20033;-29
2022/02/24 10:14:06;;;;;;;6.38;3.70;;;;;;;25.81;27.37;96448.72;4992965;28;20040;-29
2022/02/24 10:16:54;;;;;;;7.80;3.72;;;;;;;25.85;27.47;96443.31;5007468;28;20049;-32
2022/02/24 10:19:31;;;;;;;5.95;3.30;;;;;;;25.91;27.67;96437.69;5004282;28;20037;-30
2022/02/24 10:22:28;;;;;;;6.97;3.40;;;;;;;26.02;27.47;96439.69;4991778;28;20603;-28
2022/02/24 10:25:03;;;;;;;5.85;3.20;;;;;;;26.16;27.51;96430.97;5009015;28;20029;-28
2022/02/24 10:27:30;;;;;;;8.75;3.58;;;;;;;26.29;27.54;96429.31;5002880;28;20033;-30
2022/02/24 10:30:16;;;;;;;6.55;3.60;;;;;;;26.46;27.23;96427.44;5004310;28;20707;-29
2022/02/24 10:32:41;;;;;;;5.70;3.22;;;;;;;26.59;27.11;96423.09;5005426;28;20452;-30
2022/02/24 10:35:25;;;;;;;5.38;3.17;;;;;;;26.74;27.21;96426.56;5004153;28;20033;-27
2022/02/24 10:38:02;;;;;;;4.53;3.20;;;;;;;26.85;26.98;96418.00;5004169;28;20056;-31
2022/02/24 10:40:32;;;;;;;5.38;3.35;;;;;;;26.96;27.02;96409.44;5008508;28;20120;-29
2022/02/24 10:43:10;;;;;;;4.80;2.92;;;;;;;27.07;26.86;96411.38;5007411;28;20920;-29
2022/02/24 10:45:35;;;;;;;4.63;2.90;;;;;;;27.17;26.89;96410.78;5014772;28;20037;-31
2022/02/24 10:48:02;;;;;;;5.10;3.00;;;;;;;27.23;26.89;96400.72;4992306;28;20033;-30
2022/02/24 10:50:46;;;;;;;6.25;3.08;;;;;;;27.31;26.73;96402.84;5009828;28;20077;-29
2022/02/24 10:53:11;;;;;;;5.32;2.95;;;;;;;27.39;26.67;96400.53;5007642;28;20033;-32
2022/02/24 10:56:01;;;;;;;4.10;2.75;;;;;;;27.46;26.66;96379.09;5007816;28;20075;-31
2022/02/24 10:58:28;;;;;;;9.88;2.83;;;;;;;27.52;26.77;96391.84;5011404;28;20659;-32
2022/02/24 11:01:06;;;;;;;4.45;3.00;;;;;;;27.56;26.60;96374.91;5013269;28;20034;-29
2022/02/24 11:03:32;;;;;;;5.70;2.53;;;;;;;27.60;26.64;96376.38;5009683;28;20025;-28
2022/02/24 11:05:58;;;;;;;4.75;2.58;;;;;;;27.64;26.67;96372.63;5007398;28;20029;-28
2022/02/24 11:08:24;;;;;;;3.72;2.53;;;;;;;27.69;26.67;96369.69;5009143;28;20034;-30
2022/02/24 11:10:49;;;;;;;6.38;2.42;;;;;;;27.73;26.66;96362.44;4980275;28;20048;-29
2022/02/24 11:13:14;;;;;;;6.15;2.63;;;;;;;27.76;26.70;96364.84;4993004;28;20029;-30
2022/02/24 11:15:40;;;;;;;4.45;3.00;;;;;;;27.80;26.55;96350.50;5006668;28;20037;-34
2022/02/24 11:18:06;;;;;;;3.03;2.28;;;;;;;27.83;26.59;96355.59;4992281;28;20083;-27
2022/02/24 11:20:32;;;;;;;3.78;2.70;;;;;;;27.85;26.58;96356.34;5005322;28;20040;-28
2022/02/24 11:22:57;;;;;;;4.22;2.50;;;;;;;27.88;26.70;96345.56;4994723;28;20033;-28
2022/02/24 11:25:22;;;;;;;3.75;2.60;;;;;;;27.90;26.86;96351.59;4993141;28;20385;-28
2022/02/24 11:27:49;;;;;;;4.07;2.47;;;;;;;27.92;26.79;96336.50;4971664;28;20087;-29
2022/02/24 11:30:35;;;;;;;4.13;2.60;;;;;;;27.96;26.87;96341.56;4990550;28;20033;-31